WJA594 CYYC-CYHM
Flight info
| Callsign | WJA594 |
|---|---|
| Flight time | N/A |
| Altitude | 35000 |
| Route | LOMLO Q961 DAPOP DCT MUTUR Q908 FELTN DCT SSM DCT MUSIT DCT TETOS TETOS1 |
| Aircraft | B738/M-SDE2E3FGHIRWXY/LB1 |
Departure
| Time | N/A |
|---|---|
| Airport | Calgary International Airport (CYYC) |
Arrival
| Time | 2026-04-26 14:59 |
|---|---|
| Airport | John C. Munro Hamilton International Airport (CYHM) |
| Time | Latitude | Longitude | Altitude | Speed | Heading |
|---|---|---|---|---|---|
| 2026-04-26 13:52 | 48.17609 | -87.98309 | 35230 ft | 476 kts | 130° |
| 2026-04-26 13:52 | 48.15756 | -87.94188 | 35237 ft | 477 kts | 130° |
| 2026-04-26 13:53 | 48.12038 | -87.85942 | 35239 ft | 477 kts | 130° |
| 2026-04-26 13:53 | 48.08311 | -87.77701 | 35240 ft | 478 kts | 130° |
| 2026-04-26 13:54 | 48.04578 | -87.69470 | 35235 ft | 479 kts | 130° |
| 2026-04-26 13:54 | 48.00830 | -87.61234 | 35241 ft | 479 kts | 130° |
| 2026-04-26 13:55 | 47.95825 | -87.50271 | 35239 ft | 479 kts | 130° |
| 2026-04-26 13:56 | 47.89562 | -87.36616 | 35233 ft | 479 kts | 130° |
| 2026-04-26 13:56 | 47.85789 | -87.28423 | 35233 ft | 479 kts | 130° |
| 2026-04-26 13:57 | 47.82016 | -87.20253 | 35237 ft | 479 kts | 130° |
| 2026-04-26 13:57 | 47.78236 | -87.12092 | 35239 ft | 478 kts | 130° |
| 2026-04-26 13:58 | 47.74456 | -87.03957 | 35244 ft | 478 kts | 130° |
| 2026-04-26 13:58 | 47.70676 | -86.95848 | 35246 ft | 478 kts | 130° |
| 2026-04-26 13:59 | 47.66891 | -86.87749 | 35247 ft | 477 kts | 130° |
| 2026-04-26 13:59 | 47.63097 | -86.79658 | 35241 ft | 478 kts | 130° |
| 2026-04-26 14:00 | 47.55483 | -86.63487 | 35248 ft | 479 kts | 130° |
| 2026-04-26 14:01 | 47.51689 | -86.55465 | 35250 ft | 479 kts | 129° |
| 2026-04-26 14:01 | 47.47866 | -86.47406 | 35250 ft | 479 kts | 129° |
| 2026-04-26 14:02 | 47.44036 | -86.39353 | 35239 ft | 478 kts | 129° |
| 2026-04-26 14:02 | 47.40212 | -86.31338 | 35242 ft | 477 kts | 129° |
| 2026-04-26 14:03 | 47.36389 | -86.23349 | 35245 ft | 475 kts | 129° |
| 2026-04-26 14:03 | 47.32576 | -86.15403 | 35240 ft | 474 kts | 129° |
| 2026-04-26 14:04 | 47.28770 | -86.07494 | 35239 ft | 472 kts | 129° |
| 2026-04-26 14:04 | 47.24967 | -85.99615 | 35239 ft | 471 kts | 130° |
| 2026-04-26 14:05 | 47.21166 | -85.91764 | 35241 ft | 470 kts | 130° |
| 2026-04-26 14:05 | 47.17373 | -85.83949 | 35243 ft | 469 kts | 130° |
| 2026-04-26 14:06 | 47.13603 | -85.76204 | 35244 ft | 468 kts | 130° |
| 2026-04-26 14:06 | 47.09806 | -85.68428 | 35249 ft | 469 kts | 130° |
| 2026-04-26 14:07 | 47.06000 | -85.60653 | 35250 ft | 469 kts | 130° |
| 2026-04-26 14:07 | 47.02183 | -85.52879 | 35253 ft | 470 kts | 130° |
| 2026-04-26 14:08 | 46.98354 | -85.45101 | 35256 ft | 471 kts | 130° |
| 2026-04-26 14:08 | 46.94507 | -85.37308 | 35258 ft | 472 kts | 129° |
| 2026-04-26 14:09 | 46.90652 | -85.29520 | 35257 ft | 473 kts | 129° |
| 2026-04-26 14:09 | 46.86782 | -85.21725 | 35260 ft | 474 kts | 129° |
| 2026-04-26 14:10 | 46.82901 | -85.13928 | 35253 ft | 475 kts | 129° |
| 2026-04-26 14:10 | 46.79010 | -85.06135 | 35259 ft | 475 kts | 129° |
| 2026-04-26 14:11 | 46.73183 | -84.94503 | 35256 ft | 475 kts | 129° |
| 2026-04-26 14:11 | 46.69266 | -84.86712 | 35254 ft | 476 kts | 129° |
| 2026-04-26 14:12 | 46.65354 | -84.78951 | 35252 ft | 476 kts | 129° |
| 2026-04-26 14:12 | 46.61435 | -84.71198 | 35248 ft | 476 kts | 129° |
| 2026-04-26 14:13 | 46.55549 | -84.59594 | 35241 ft | 475 kts | 129° |
| 2026-04-26 14:14 | 46.52276 | -84.53164 | 35241 ft | 476 kts | 129° |
| 2026-04-26 14:14 | 46.48339 | -84.45446 | 35236 ft | 476 kts | 129° |
| 2026-04-26 14:15 | 46.44398 | -84.37739 | 35242 ft | 476 kts | 129° |
| 2026-04-26 14:15 | 46.40446 | -84.30038 | 35242 ft | 475 kts | 130° |
| 2026-04-26 14:16 | 46.36477 | -84.22383 | 35243 ft | 475 kts | 130° |
| 2026-04-26 14:16 | 46.32499 | -84.14752 | 35245 ft | 475 kts | 130° |
| 2026-04-26 14:17 | 46.28541 | -84.07172 | 35253 ft | 475 kts | 130° |
| 2026-04-26 14:17 | 46.24559 | -83.99559 | 35252 ft | 475 kts | 130° |
| 2026-04-26 14:18 | 46.20572 | -83.91956 | 35252 ft | 475 kts | 130° |
| 2026-04-26 14:18 | 46.16575 | -83.84353 | 35250 ft | 475 kts | 130° |
| 2026-04-26 14:19 | 46.12581 | -83.76776 | 35250 ft | 475 kts | 130° |
| 2026-04-26 14:19 | 46.08578 | -83.69204 | 35251 ft | 475 kts | 130° |
| 2026-04-26 14:20 | 46.04569 | -83.61642 | 35248 ft | 475 kts | 130° |
| 2026-04-26 14:20 | 46.00553 | -83.54086 | 35253 ft | 475 kts | 130° |
| 2026-04-26 14:21 | 45.96558 | -83.46591 | 35259 ft | 475 kts | 130° |
| 2026-04-26 14:21 | 45.92535 | -83.39063 | 35268 ft | 475 kts | 130° |
| 2026-04-26 14:22 | 45.88505 | -83.31541 | 35271 ft | 475 kts | 130° |
| 2026-04-26 14:22 | 45.84464 | -83.24019 | 35276 ft | 475 kts | 130° |
| 2026-04-26 14:23 | 45.80421 | -83.16513 | 35272 ft | 475 kts | 130° |
| 2026-04-26 14:23 | 45.76367 | -83.09007 | 35278 ft | 475 kts | 130° |
| 2026-04-26 14:24 | 45.72316 | -83.01526 | 35275 ft | 475 kts | 130° |
| 2026-04-26 14:24 | 45.68261 | -82.94058 | 35277 ft | 475 kts | 130° |
| 2026-04-26 14:25 | 45.64199 | -82.86597 | 35262 ft | 475 kts | 130° |
| 2026-04-26 14:25 | 45.60132 | -82.79146 | 35269 ft | 475 kts | 130° |
| 2026-04-26 14:26 | 45.56064 | -82.71713 | 35266 ft | 475 kts | 130° |
| 2026-04-26 14:26 | 45.51991 | -82.64291 | 35274 ft | 475 kts | 130° |
| 2026-04-26 14:27 | 45.47917 | -82.56883 | 35273 ft | 475 kts | 130° |
| 2026-04-26 14:27 | 45.43864 | -82.49531 | 35271 ft | 475 kts | 130° |
| 2026-04-26 14:28 | 45.39589 | -82.42391 | 35269 ft | 472 kts | 139° |
| 2026-04-26 14:28 | 45.34287 | -82.37008 | 35281 ft | 468 kts | 151° |
| 2026-04-26 14:29 | 45.28708 | -82.32224 | 35270 ft | 468 kts | 151° |
| 2026-04-26 14:29 | 45.23136 | -82.27429 | 35278 ft | 468 kts | 151° |
| 2026-04-26 14:30 | 45.17570 | -82.22587 | 35276 ft | 469 kts | 150° |
| 2026-04-26 14:30 | 45.12049 | -82.17765 | 35280 ft | 469 kts | 150° |
| 2026-04-26 14:31 | 45.06482 | -82.12911 | 35282 ft | 470 kts | 150° |
| 2026-04-26 14:31 | 45.00906 | -82.08062 | 35281 ft | 470 kts | 150° |
| 2026-04-26 14:32 | 44.95326 | -82.03222 | 35281 ft | 471 kts | 150° |
| 2026-04-26 14:32 | 44.89739 | -81.98388 | 35281 ft | 471 kts | 150° |
| 2026-04-26 14:33 | 44.84141 | -81.93556 | 35282 ft | 472 kts | 150° |
| 2026-04-26 14:33 | 44.79900 | -81.89903 | 35283 ft | 472 kts | 150° |
| 2026-04-26 14:34 | 44.74297 | -81.85086 | 35279 ft | 472 kts | 150° |
| 2026-04-26 14:34 | 44.71524 | -81.82706 | 35145 ft | 474 kts | 150° |
| 2026-04-26 14:34 | 44.68684 | -81.80272 | 34542 ft | 479 kts | 150° |
| 2026-04-26 14:34 | 44.65843 | -81.77840 | 33835 ft | 477 kts | 150° |
| 2026-04-26 14:35 | 44.63011 | -81.75417 | 33102 ft | 476 kts | 150° |
| 2026-04-26 14:35 | 44.60182 | -81.72999 | 32362 ft | 476 kts | 150° |
| 2026-04-26 14:35 | 44.57351 | -81.70583 | 31611 ft | 476 kts | 150° |
| 2026-04-26 14:35 | 44.54520 | -81.68170 | 30948 ft | 476 kts | 150° |
| 2026-04-26 14:36 | 44.51707 | -81.65774 | 30423 ft | 471 kts | 150° |
| 2026-04-26 14:36 | 44.48913 | -81.63397 | 29802 ft | 467 kts | 150° |
| 2026-04-26 14:36 | 44.46149 | -81.61049 | 29219 ft | 462 kts | 150° |
| 2026-04-26 14:36 | 44.43414 | -81.58727 | 28681 ft | 457 kts | 150° |
| 2026-04-26 14:37 | 44.40735 | -81.56456 | 28120 ft | 453 kts | 150° |
| 2026-04-26 14:37 | 44.38022 | -81.54159 | 27587 ft | 448 kts | 151° |
| 2026-04-26 14:37 | 44.35365 | -81.51912 | 27043 ft | 445 kts | 151° |
| 2026-04-26 14:37 | 44.32726 | -81.49682 | 26513 ft | 441 kts | 151° |
| 2026-04-26 14:38 | 44.30144 | -81.47504 | 25992 ft | 438 kts | 151° |
| 2026-04-26 14:38 | 44.27545 | -81.45313 | 25469 ft | 435 kts | 151° |
| 2026-04-26 14:38 | 44.24960 | -81.43136 | 24950 ft | 433 kts | 151° |
| 2026-04-26 14:38 | 44.23222 | -81.41674 | 24594 ft | 431 kts | 152° |
| 2026-04-26 14:39 | 44.19827 | -81.38821 | 23879 ft | 429 kts | 152° |
| 2026-04-26 14:39 | 44.17278 | -81.36681 | 23279 ft | 427 kts | 152° |
| 2026-04-26 14:39 | 44.14743 | -81.34555 | 22714 ft | 423 kts | 152° |
| 2026-04-26 14:39 | 44.12231 | -81.32451 | 22183 ft | 420 kts | 152° |
| 2026-04-26 14:40 | 44.09734 | -81.30361 | 21666 ft | 417 kts | 151° |
| 2026-04-26 14:40 | 44.07255 | -81.28288 | 21151 ft | 414 kts | 151° |
| 2026-04-26 14:40 | 44.04793 | -81.26232 | 20648 ft | 411 kts | 151° |
| 2026-04-26 14:40 | 44.02348 | -81.24191 | 20142 ft | 409 kts | 151° |
| 2026-04-26 14:41 | 43.99911 | -81.22159 | 19635 ft | 407 kts | 151° |
| 2026-04-26 14:41 | 43.97488 | -81.20142 | 19123 ft | 405 kts | 151° |
| 2026-04-26 14:41 | 43.95072 | -81.18132 | 18602 ft | 404 kts | 150° |
| 2026-04-26 14:41 | 43.92661 | -81.16128 | 18037 ft | 403 kts | 150° |
| 2026-04-26 14:42 | 43.90256 | -81.14132 | 17338 ft | 405 kts | 150° |
| 2026-04-26 14:42 | 43.87873 | -81.12156 | 16788 ft | 402 kts | 150° |
| 2026-04-26 14:42 | 43.85481 | -81.10172 | 16262 ft | 399 kts | 150° |
| 2026-04-26 14:42 | 43.83103 | -81.08203 | 15751 ft | 396 kts | 149° |
| 2026-04-26 14:43 | 43.80746 | -81.06251 | 15242 ft | 394 kts | 149° |
| 2026-04-26 14:43 | 43.78396 | -81.04309 | 14691 ft | 392 kts | 149° |
| 2026-04-26 14:43 | 43.76056 | -81.02376 | 14179 ft | 391 kts | 149° |
| 2026-04-26 14:43 | 43.73731 | -81.00458 | 13661 ft | 388 kts | 149° |
| 2026-04-26 14:44 | 43.71422 | -80.98555 | 13140 ft | 384 kts | 149° |
| 2026-04-26 14:44 | 43.69143 | -80.96678 | 12660 ft | 380 kts | 149° |
| 2026-04-26 14:44 | 43.66871 | -80.94808 | 12186 ft | 377 kts | 148° |
| 2026-04-26 14:44 | 43.64627 | -80.92963 | 11706 ft | 373 kts | 148° |
| 2026-04-26 14:45 | 43.62405 | -80.91138 | 11249 ft | 369 kts | 148° |
| 2026-04-26 14:45 | 43.60948 | -80.89943 | 10969 ft | 367 kts | 148° |
| 2026-04-26 14:45 | 43.58101 | -80.87609 | 10970 ft | 345 kts | 148° |
| 2026-04-26 14:45 | 43.56082 | -80.85955 | 10958 ft | 330 kts | 148° |
| 2026-04-26 14:46 | 43.54165 | -80.84385 | 10770 ft | 322 kts | 148° |
| 2026-04-26 14:46 | 43.52251 | -80.82818 | 10469 ft | 318 kts | 148° |
| 2026-04-26 14:46 | 43.50327 | -80.81245 | 10167 ft | 316 kts | 148° |
| 2026-04-26 14:46 | 43.48484 | -80.79739 | 9960 ft | 309 kts | 148° |
| 2026-04-26 14:47 | 43.46665 | -80.78254 | 9909 ft | 296 kts | 148° |
| 2026-04-26 14:47 | 43.44965 | -80.76736 | 9649 ft | 291 kts | 134° |
| 2026-04-26 14:47 | 43.44144 | -80.75245 | 9500 ft | 289 kts | 117° |
| 2026-04-26 14:47 | 43.43931 | -80.74718 | 9454 ft | 288 kts | 116° |
| 2026-04-26 14:48 | 43.43111 | -80.72545 | 9228 ft | 287 kts | 114° |
| 2026-04-26 14:48 | 43.42188 | -80.70028 | 8961 ft | 284 kts | 114° |
| 2026-04-26 14:48 | 43.41300 | -80.67622 | 8702 ft | 281 kts | 115° |
| 2026-04-26 14:48 | 43.40411 | -80.65241 | 8450 ft | 278 kts | 115° |
| 2026-04-26 14:49 | 43.39523 | -80.62894 | 8194 ft | 276 kts | 115° |
| 2026-04-26 14:49 | 43.38637 | -80.60568 | 7948 ft | 273 kts | 115° |
| 2026-04-26 14:49 | 43.37754 | -80.58265 | 7702 ft | 271 kts | 115° |
| 2026-04-26 14:49 | 43.36876 | -80.55985 | 7457 ft | 270 kts | 115° |
| 2026-04-26 14:50 | 43.36000 | -80.53715 | 7211 ft | 268 kts | 115° |
| 2026-04-26 14:50 | 43.35126 | -80.51458 | 6969 ft | 267 kts | 115° |
| 2026-04-26 14:50 | 43.34258 | -80.49218 | 6732 ft | 265 kts | 115° |
| 2026-04-26 14:50 | 43.33390 | -80.46980 | 6484 ft | 265 kts | 115° |
| 2026-04-26 14:51 | 43.32526 | -80.44755 | 6224 ft | 264 kts | 115° |
| 2026-04-26 14:51 | 43.31664 | -80.42537 | 5978 ft | 263 kts | 115° |
| 2026-04-26 14:51 | 43.30806 | -80.40331 | 5722 ft | 261 kts | 115° |
| 2026-04-26 14:51 | 43.29952 | -80.38142 | 5467 ft | 259 kts | 115° |
| 2026-04-26 14:52 | 43.29106 | -80.35968 | 5206 ft | 257 kts | 115° |
| 2026-04-26 14:52 | 43.28265 | -80.33811 | 4978 ft | 255 kts | 116° |
| 2026-04-26 14:52 | 43.27433 | -80.31680 | 4710 ft | 252 kts | 116° |
| 2026-04-26 14:52 | 43.26609 | -80.29571 | 4442 ft | 250 kts | 116° |
| 2026-04-26 14:53 | 43.25792 | -80.27482 | 4187 ft | 247 kts | 116° |
| 2026-04-26 14:53 | 43.24995 | -80.25404 | 3932 ft | 245 kts | 112° |
| 2026-04-26 14:53 | 43.24396 | -80.23241 | 3683 ft | 241 kts | 106° |
| 2026-04-26 14:53 | 43.23909 | -80.21090 | 3472 ft | 231 kts | 105° |
| 2026-04-26 14:54 | 43.23604 | -80.19718 | 3324 ft | 222 kts | 105° |
| 2026-04-26 14:54 | 43.23037 | -80.17219 | 3321 ft | 193 kts | 105° |
| 2026-04-26 14:54 | 43.22655 | -80.15544 | 3296 ft | 176 kts | 105° |
| 2026-04-26 14:54 | 43.22296 | -80.13966 | 3282 ft | 172 kts | 105° |
| 2026-04-26 14:55 | 43.21939 | -80.12399 | 3291 ft | 173 kts | 105° |
| 2026-04-26 14:55 | 43.21577 | -80.10808 | 3187 ft | 176 kts | 105° |
| 2026-04-26 14:55 | 43.21214 | -80.09210 | 3043 ft | 177 kts | 105° |
| 2026-04-26 14:55 | 43.20850 | -80.07614 | 2821 ft | 172 kts | 105° |
| 2026-04-26 14:56 | 43.20614 | -80.06576 | 2671 ft | 168 kts | 104° |
| 2026-04-26 14:56 | 43.20167 | -80.04612 | 2394 ft | 151 kts | 104° |
| 2026-04-26 14:56 | 43.19872 | -80.03315 | 2160 ft | 135 kts | 104° |
| 2026-04-26 14:56 | 43.19603 | -80.02129 | 1971 ft | 127 kts | 103° |
| 2026-04-26 14:57 | 43.19339 | -80.00954 | 1806 ft | 131 kts | 104° |
| 2026-04-26 14:57 | 43.19064 | -79.99746 | 1622 ft | 135 kts | 104° |
| 2026-04-26 14:57 | 43.18781 | -79.98502 | 1404 ft | 138 kts | 104° |
| 2026-04-26 14:57 | 43.18468 | -79.97230 | 1173 ft | 142 kts | 104° |
| 2026-04-26 14:58 | 43.18179 | -79.95932 | 995 ft | 143 kts | 101° |
| 2026-04-26 14:58 | 43.17901 | -79.94632 | 822 ft | 141 kts | 101° |
| 2026-04-26 14:58 | 43.17646 | -79.93402 | 778 ft | 118 kts | 110° |
| 2026-04-26 14:58 | 43.17432 | -79.92567 | 781 ft | 55 kts | 110° |
| 2026-04-26 14:59 | 43.17372 | -79.92395 | 777 ft | 1 kts | 174° |
| 2026-04-26 14:59 | 43.17362 | -79.92405 | 777 ft | 5 kts | 214° |
| 2026-04-26 14:59 | 43.17282 | -79.92525 | 777 ft | 20 kts | 229° |
| 2026-04-26 14:59 | 43.17249 | -79.92577 | 778 ft | 23 kts | 229° |
| 2026-04-26 15:00 | 43.17100 | -79.92814 | 776 ft | 10 kts | 230° |
| 2026-04-26 15:00 | 43.17026 | -79.92828 | 776 ft | 16 kts | 157° |
| 2026-04-26 15:00 | 43.16915 | -79.92743 | 783 ft | 18 kts | 149° |
| 2026-04-26 15:00 | 43.16826 | -79.92680 | 785 ft | 1 kts | 141° |
| 2026-04-26 15:01 | 43.16801 | -79.92657 | 786 ft | 11 kts | 147° |
| 2026-04-26 15:01 | 43.16696 | -79.92573 | 786 ft | 12 kts | 149° |
| 2026-04-26 15:01 | 43.16646 | -79.92534 | 786 ft | 12 kts | 150° |
| 2026-04-26 15:01 | 43.16568 | -79.92503 | 785 ft | 5 kts | 184° |
| 2026-04-26 15:02 | 43.16524 | -79.92518 | 782 ft | 9 kts | 210° |
| 2026-04-26 15:02 | 43.16500 | -79.92568 | 780 ft | 10 kts | 242° |
| 2026-04-26 15:02 | 43.16460 | -79.92624 | 778 ft | 5 kts | 200° |
| 2026-04-26 15:02 | 43.16444 | -79.92631 | 777 ft | 3 kts | 198° |
| 2026-04-26 15:03 | 43.16436 | -79.92635 | 777 ft | 0 kts | 197° |